createdAt,value
2022-09-23T00:02:10.878Z,81.98
2022-09-23T00:04:39.000Z,82.84
2022-09-23T00:07:08.878Z,82.90
2022-09-23T00:09:36.847Z,83.00
2022-09-23T00:12:08.839Z,83.21
2022-09-23T00:14:38.932Z,83.21
2022-09-23T00:17:07.166Z,82.93
2022-09-23T00:19:35.426Z,83.23
2022-09-23T00:22:03.397Z,83.23
2022-09-23T00:24:33.560Z,83.37
2022-09-23T00:27:02.672Z,84.67
2022-09-23T00:29:37.820Z,84.56
2022-09-23T00:32:06.118Z,84.91
2022-09-23T00:34:34.182Z,84.11
2022-09-23T00:37:02.194Z,83.40
2022-09-23T00:39:30.341Z,83.25
2022-09-23T00:41:59.781Z,83.73
2022-09-23T00:44:44.760Z,83.23
2022-09-23T00:47:17.934Z,83.46
2022-09-23T00:49:48.123Z,83.25
2022-09-23T00:52:19.492Z,84.79
2022-09-23T00:54:48.658Z,84.38
2022-09-23T00:57:20.262Z,85.39
2022-09-23T00:59:50.236Z,84.67
2022-09-23T01:02:21.091Z,84.17
2022-09-23T01:04:51.065Z,84.17
2022-09-23T01:07:19.247Z,85.20
2022-09-23T01:09:49.837Z,84.48
2022-09-23T01:12:32.745Z,84.07
2022-09-23T01:15:10.575Z,84.31
2022-09-23T01:17:45.409Z,83.93
2022-09-23T01:20:56.403Z,83.65
2022-09-23T01:23:45.342Z,84.21
2022-09-23T01:26:35.699Z,83.76
2022-09-23T01:29:28.062Z,83.06
2022-09-23T01:32:04.864Z,83.60
2022-09-23T01:34:37.803Z,83.55
2022-09-23T01:37:11.755Z,83.50
2022-09-23T01:39:44.071Z,83.70
2022-09-23T01:42:18.834Z,83.27
2022-09-23T01:44:52.709Z,83.27
2022-09-23T01:47:31.628Z,83.94
2022-09-23T01:50:24.655Z,84.19
2022-09-23T01:52:55.689Z,84.10
2022-09-23T01:55:28.214Z,85.62
2022-09-23T01:58:02.667Z,85.64
2022-09-23T02:00:34.310Z,85.52
2022-09-23T02:03:13.259Z,84.68
2022-09-23T02:05:47.261Z,84.78
2022-09-23T02:08:25.923Z,84.57
2022-09-23T02:10:58.775Z,85.63
2022-09-23T02:13:33.117Z,85.33
2022-09-23T02:16:09.000Z,86.13
2022-09-23T02:18:42.316Z,86.17
2022-09-23T02:21:11.552Z,86.02
2022-09-23T02:23:45.016Z,85.32
2022-09-23T02:26:22.362Z,84.93
2022-09-23T02:28:56.673Z,84.49
2022-09-23T02:31:34.221Z,84.70
2022-09-23T02:34:12.834Z,84.64
2022-09-23T02:36:50.961Z,85.70
2022-09-23T02:39:21.875Z,86.10
2022-09-23T02:41:57.994Z,86.16
2022-09-23T02:44:26.311Z,85.63
2022-09-23T02:46:57.041Z,85.27
2022-09-23T02:49:29.403Z,84.80
2022-09-23T02:51:58.850Z,85.49
2022-09-23T02:54:29.419Z,85.54
2022-09-23T02:56:57.437Z,85.27
2022-09-23T02:59:25.940Z,84.31
2022-09-23T03:02:35.546Z,84.50
2022-09-23T03:05:12.894Z,84.80
2022-09-23T03:07:49.978Z,84.55
2022-09-23T03:10:24.194Z,84.84
2022-09-23T03:13:00.637Z,84.14
2022-09-23T03:15:39.182Z,84.51
2022-09-23T03:18:14.781Z,84.90
2022-09-23T03:20:57.158Z,84.66
2022-09-23T03:23:30.135Z,85.23
2022-09-23T03:26:01.307Z,85.91
2022-09-23T03:28:30.304Z,85.89
2022-09-23T03:31:00.823Z,86.34
2022-09-23T03:33:29.281Z,86.29
2022-09-23T03:36:21.126Z,85.96
2022-09-23T03:38:52.381Z,85.41
2022-09-23T03:41:29.051Z,85.26
2022-09-23T03:43:58.833Z,86.48
2022-09-23T03:46:30.203Z,87.41
2022-09-23T03:49:05.498Z,86.72
2022-09-23T03:51:34.937Z,86.09
2022-09-23T03:54:03.030Z,85.73
2022-09-23T03:56:31.122Z,86.06
2022-09-23T03:58:59.210Z,86.65
2022-09-23T04:01:27.283Z,86.84
2022-09-23T04:03:55.380Z,86.16
2022-09-23T04:06:23.693Z,85.02
2022-09-23T04:08:53.282Z,84.97
2022-09-23T04:11:21.318Z,85.06
2022-09-23T04:13:49.359Z,85.22
2022-09-23T04:16:17.667Z,86.38
2022-09-23T04:18:45.911Z,86.86
2022-09-23T04:21:14.376Z,88.03
2022-09-23T04:23:42.701Z,88.21
2022-09-23T04:26:12.655Z,88.95
2022-09-23T04:28:40.848Z,88.15
2022-09-23T04:31:10.092Z,88.68
2022-09-23T04:33:38.786Z,88.40
2022-09-23T04:36:07.324Z,88.31
2022-09-23T04:38:35.932Z,87.87
2022-09-23T04:41:04.123Z,88.15
2022-09-23T04:43:33.546Z,87.97
2022-09-23T04:46:02.544Z,87.42
2022-09-23T04:48:31.183Z,87.27
2022-09-23T04:51:03.472Z,87.13
2022-09-23T04:53:32.210Z,86.93
2022-09-23T04:56:03.065Z,87.09
2022-09-23T04:58:31.209Z,87.33
2022-09-23T05:01:08.697Z,87.01
2022-09-23T05:03:36.873Z,86.91
2022-09-23T05:06:05.652Z,87.14
2022-09-23T05:08:33.756Z,87.12
2022-09-23T05:11:04.976Z,87.17
2022-09-23T05:13:33.588Z,87.02
2022-09-23T05:16:05.120Z,86.86
2022-09-23T05:18:33.576Z,87.11
2022-09-23T05:21:02.121Z,87.36
2022-09-23T05:23:30.800Z,87.82
2022-09-23T05:26:00.220Z,88.22
2022-09-23T05:28:33.027Z,88.27
2022-09-23T05:31:06.946Z,88.55
2022-09-23T05:33:35.438Z,88.59
2022-09-23T05:36:04.882Z,88.89
2022-09-23T05:38:33.545Z,89.32
2022-09-23T05:41:03.434Z,89.86
2022-09-23T05:43:32.387Z,90.57
2022-09-23T05:46:08.157Z,90.79
2022-09-23T05:48:37.511Z,90.62
2022-09-23T05:51:12.842Z,90.34
2022-09-23T05:53:45.015Z,90.39
2022-09-23T05:56:13.585Z,90.38
2022-09-23T05:58:41.976Z,90.36
2022-09-23T06:01:12.729Z,90.48
2022-09-23T06:03:41.281Z,89.84
2022-09-23T06:06:14.684Z,89.99
2022-09-23T06:08:43.198Z,89.27
2022-09-23T06:11:13.922Z,89.21
2022-09-23T06:13:43.407Z,90.05
2022-09-23T06:16:14.789Z,89.10
2022-09-23T06:18:43.945Z,88.56
2022-09-23T06:21:18.676Z,88.14
2022-09-23T06:23:47.186Z,88.00
2022-09-23T06:26:16.901Z,87.57
2022-09-23T06:28:46.162Z,87.57
2022-09-23T06:31:17.689Z,87.93
2022-09-23T06:33:47.087Z,87.56
2022-09-23T06:36:27.355Z,86.20
2022-09-23T06:39:03.000Z,85.68
2022-09-23T06:41:31.314Z,85.16
2022-09-23T06:43:59.544Z,85.31
2022-09-23T06:46:31.375Z,84.95
2022-09-23T06:49:01.251Z,85.33
2022-09-23T06:51:29.682Z,86.15
2022-09-23T06:53:58.106Z,84.12
2022-09-23T06:56:26.311Z,83.21
2022-09-23T06:58:54.899Z,84.11
2022-09-23T07:01:23.386Z,84.32
2022-09-23T07:03:55.856Z,84.07
2022-09-23T07:06:24.062Z,83.78
2022-09-23T07:08:54.168Z,84.87
2022-09-23T07:11:22.698Z,83.97
2022-09-23T07:13:51.347Z,83.00
2022-09-23T07:16:20.261Z,82.59
2022-09-23T07:18:48.373Z,83.42
2022-09-23T07:21:19.394Z,83.00
2022-09-23T07:23:50.476Z,83.21
2022-09-23T07:26:20.251Z,81.94
2022-09-23T07:28:48.413Z,82.47
2022-09-23T07:31:29.594Z,80.39
2022-09-23T07:34:03.012Z,80.42
2022-09-23T07:36:33.446Z,80.49
2022-09-23T07:39:03.644Z,81.42
2022-09-23T07:41:33.503Z,81.49
2022-09-23T07:44:03.172Z,78.84
2022-09-23T07:46:33.277Z,78.42
2022-09-23T07:49:02.141Z,78.32
2022-09-23T07:51:36.449Z,76.68
2022-09-23T07:54:08.099Z,78.12
2022-09-23T07:56:37.523Z,76.44
2022-09-23T07:59:10.662Z,73.71
2022-09-23T08:01:40.579Z,75.48
2022-09-23T08:04:11.897Z,77.80
2022-09-23T08:06:43.909Z,75.05
2022-09-23T08:09:12.936Z,74.00
2022-09-23T08:11:43.931Z,73.71
2022-09-23T08:14:16.077Z,72.90
2022-09-23T08:16:45.519Z,72.00
2022-09-23T08:19:13.902Z,71.65
2022-09-23T08:21:43.734Z,70.24
2022-09-23T08:24:15.389Z,66.92
2022-09-23T08:26:43.573Z,67.61
2022-09-23T08:29:13.736Z,65.81
2022-09-23T08:31:42.203Z,65.16
2022-09-23T08:34:10.763Z,68.96
2022-09-23T08:36:39.476Z,66.53
2022-09-23T08:39:09.159Z,67.80
2022-09-23T08:41:44.934Z,66.51
2022-09-23T08:44:15.082Z,66.23
2022-09-23T08:46:50.289Z,63.34
2022-09-23T08:49:25.736Z,63.19
2022-09-23T08:51:56.026Z,63.79
2022-09-23T08:54:30.939Z,64.28
2022-09-23T08:57:04.821Z,63.57
2022-09-23T08:59:39.187Z,62.20
2022-09-23T09:02:16.594Z,61.71
2022-09-23T09:04:47.070Z,61.42
2022-09-23T09:07:37.097Z,61.02
2022-09-23T09:10:16.747Z,63.16
2022-09-23T09:12:46.739Z,61.48
2022-09-23T09:15:17.577Z,60.54
2022-09-23T09:17:55.033Z,59.85
2022-09-23T09:20:26.048Z,61.38
2022-09-23T09:22:57.895Z,60.44
2022-09-23T09:25:38.089Z,59.95
2022-09-23T09:28:15.892Z,61.51
2022-09-23T09:30:48.552Z,58.84
2022-09-23T09:33:19.074Z,59.16
2022-09-23T09:35:59.843Z,61.09
2022-09-23T09:38:28.538Z,59.78
2022-09-23T09:41:10.980Z,56.59
2022-09-23T09:43:44.018Z,58.51
2022-09-23T09:46:29.454Z,57.21
2022-09-23T09:49:04.113Z,57.14
2022-09-23T09:51:32.328Z,59.45
2022-09-23T09:54:21.239Z,60.62
2022-09-23T09:56:52.023Z,56.55
2022-09-23T09:59:27.510Z,58.05
2022-09-23T10:02:31.107Z,56.95
2022-09-23T10:05:02.274Z,54.99
2022-09-23T10:07:32.371Z,56.34
2022-09-23T10:10:31.824Z,56.00
2022-09-23T10:13:15.843Z,57.53
2022-09-23T10:15:45.791Z,55.03
2022-09-23T10:18:21.260Z,55.23
2022-09-23T10:20:50.665Z,56.13
2022-09-23T10:23:31.307Z,54.73
2022-09-23T10:26:03.801Z,54.57
2022-09-23T10:28:41.316Z,54.59
2022-09-23T10:31:13.037Z,55.92
2022-09-23T10:33:49.942Z,53.27
2022-09-23T10:36:18.801Z,54.68
2022-09-23T10:39:18.926Z,52.83
2022-09-23T10:42:18.339Z,54.20
2022-09-23T10:45:18.875Z,51.40
2022-09-23T10:47:56.138Z,52.36
2022-09-23T10:50:39.133Z,54.44
2022-09-23T10:53:17.026Z,53.07
2022-09-23T10:56:13.492Z,53.73
2022-09-23T10:59:03.770Z,55.99
2022-09-23T11:01:41.342Z,55.72
2022-09-23T11:04:44.068Z,52.62
2022-09-23T11:07:23.894Z,54.43
2022-09-23T11:10:41.972Z,54.84
2022-09-23T11:13:16.618Z,50.93
2022-09-23T11:15:56.865Z,49.03
2022-09-23T11:18:40.756Z,47.36
2022-09-23T11:21:27.962Z,50.43
2022-09-23T11:24:18.446Z,48.37
2022-09-23T11:26:54.258Z,48.57
2022-09-23T11:29:36.553Z,41.84
2022-09-23T11:32:31.610Z,49.94
2022-09-23T11:35:13.157Z,48.11
2022-09-23T11:37:47.715Z,51.42
2022-09-23T11:40:20.296Z,47.21
2022-09-23T11:42:56.414Z,47.76
2022-09-23T11:45:28.527Z,44.16
2022-09-23T11:48:03.670Z,47.36
2022-09-23T11:50:38.888Z,46.74
2022-09-23T11:53:14.378Z,47.84
2022-09-23T11:55:55.877Z,45.84
2022-09-23T11:58:31.697Z,42.79
2022-09-23T12:01:04.109Z,43.86
2022-09-23T12:03:44.655Z,44.03
2022-09-23T12:06:19.405Z,43.25
2022-09-23T12:08:51.615Z,46.44
2022-09-23T12:11:26.674Z,41.56
2022-09-23T12:14:03.114Z,45.34
2022-09-23T12:16:50.879Z,42.16
2022-09-23T12:19:34.220Z,44.17
2022-09-23T12:22:24.244Z,43.83
2022-09-23T12:24:58.808Z,44.85
2022-09-23T12:27:36.526Z,45.17
2022-09-23T12:30:08.053Z,41.54
2022-09-23T12:32:36.289Z,41.34
2022-09-23T12:35:04.662Z,44.74
2022-09-23T12:37:38.431Z,47.30
2022-09-23T12:40:10.755Z,44.12
2022-09-23T12:42:46.419Z,43.71
2022-09-23T12:45:37.429Z,47.11
2022-09-23T12:48:26.511Z,48.25
2022-09-23T12:51:17.040Z,44.82
2022-09-23T12:53:58.764Z,46.06
2022-09-23T12:56:58.937Z,47.68
2022-09-23T12:59:29.054Z,48.81
2022-09-23T13:01:58.149Z,48.69
2022-09-23T13:04:51.638Z,49.22
2022-09-23T13:07:26.481Z,50.06
2022-09-23T13:09:59.476Z,49.62
2022-09-23T13:12:32.845Z,50.53
2022-09-23T13:15:05.763Z,50.07
2022-09-23T13:17:37.926Z,49.56
2022-09-23T13:20:27.125Z,51.13
2022-09-23T13:23:22.347Z,51.19
2022-09-23T13:25:53.976Z,48.94
2022-09-23T13:28:34.737Z,48.60
2022-09-23T13:31:07.563Z,46.86
2022-09-23T13:33:42.686Z,46.83
2022-09-23T13:36:14.716Z,50.43
2022-09-23T13:38:43.275Z,51.48
2022-09-23T13:41:16.689Z,49.69
2022-09-23T13:43:48.884Z,48.50
2022-09-23T13:46:20.230Z,48.04
2022-09-23T13:48:51.896Z,48.26
2022-09-23T13:51:26.129Z,46.74
2022-09-23T13:53:56.109Z,47.33
2022-09-23T13:56:27.397Z,47.49
2022-09-23T13:58:56.841Z,46.96
2022-09-23T14:01:32.448Z,49.98
2022-09-23T14:04:02.335Z,48.74
2022-09-23T14:06:31.886Z,51.42
2022-09-23T14:09:03.479Z,50.68
2022-09-23T14:11:35.768Z,48.68
2022-09-23T14:14:07.287Z,47.84
2022-09-23T14:16:39.262Z,51.09
2022-09-23T14:19:08.127Z,47.69
2022-09-23T14:21:37.690Z,46.61
2022-09-23T14:24:17.774Z,48.40
2022-09-23T14:26:50.109Z,46.82
2022-09-23T14:29:20.509Z,47.08
2022-09-23T14:32:00.284Z,47.39
2022-09-23T14:34:48.191Z,48.02
2022-09-23T14:37:45.503Z,48.81
2022-09-23T14:40:19.647Z,48.26
2022-09-23T14:42:53.832Z,49.26
2022-09-23T14:45:29.477Z,49.43
2022-09-23T14:48:01.206Z,49.22
2022-09-23T14:50:39.826Z,49.34
2022-09-23T14:53:40.965Z,51.06
2022-09-23T14:56:12.719Z,49.31
2022-09-23T14:58:52.435Z,50.84
2022-09-23T15:01:27.777Z,49.81
2022-09-23T15:03:57.709Z,49.56
2022-09-23T15:06:28.651Z,51.22
2022-09-23T15:08:57.878Z,49.84
2022-09-23T15:11:27.571Z,51.94
2022-09-23T15:14:05.420Z,48.90
2022-09-23T15:16:43.405Z,48.35
2022-09-23T15:19:19.673Z,47.84
2022-09-23T15:21:53.789Z,48.02
2022-09-23T15:24:44.885Z,47.17
2022-09-23T15:27:29.055Z,50.72
2022-09-23T15:30:05.046Z,48.97
2022-09-23T15:32:33.306Z,48.57
2022-09-23T15:35:01.347Z,46.44
2022-09-23T15:37:32.939Z,46.49
2022-09-23T15:40:04.783Z,48.14
2022-09-23T15:42:33.115Z,48.07
2022-09-23T15:45:03.194Z,46.80
2022-09-23T15:47:33.163Z,45.98
2022-09-23T15:50:03.334Z,46.27
2022-09-23T15:52:31.504Z,48.71
2022-09-23T15:54:59.726Z,48.48
2022-09-23T15:57:28.799Z,48.59
2022-09-23T15:59:58.501Z,49.38
2022-09-23T16:02:28.359Z,47.11
2022-09-23T16:04:57.445Z,48.32
2022-09-23T16:07:25.754Z,47.94
2022-09-23T16:09:59.978Z,49.09
2022-09-23T16:12:28.147Z,48.62
2022-09-23T16:14:58.244Z,50.09
2022-09-23T16:17:29.204Z,49.62
2022-09-23T16:19:57.332Z,49.79
2022-09-23T16:22:25.547Z,48.82
2022-09-23T16:24:59.793Z,50.05
2022-09-23T16:27:28.897Z,51.06
2022-09-23T16:29:57.183Z,50.19
2022-09-23T16:32:25.490Z,50.13
2022-09-23T16:34:58.108Z,51.07
2022-09-23T16:37:26.279Z,52.91
2022-09-23T16:39:55.013Z,51.42
2022-09-23T16:42:29.281Z,52.25
2022-09-23T16:44:57.753Z,53.93
2022-09-23T16:47:25.894Z,54.46
2022-09-23T16:49:57.499Z,53.68
2022-09-23T16:52:26.763Z,54.69
2022-09-23T16:54:55.891Z,54.53
2022-09-23T16:57:25.056Z,54.70
2022-09-23T17:00:10.294Z,56.50
2022-09-23T17:02:57.565Z,55.63
2022-09-23T17:05:27.599Z,56.41
2022-09-23T17:07:55.680Z,57.94
2022-09-23T17:10:24.293Z,56.17
2022-09-23T17:12:54.601Z,56.86
2022-09-23T17:15:22.749Z,59.13
2022-09-23T17:17:52.998Z,61.84
2022-09-23T17:20:22.080Z,62.70
2022-09-23T17:22:51.515Z,63.89
2022-09-23T17:25:19.770Z,64.41
2022-09-23T17:27:49.578Z,66.83
2022-09-23T17:30:17.892Z,67.51
2022-09-23T17:32:45.956Z,67.38
2022-09-23T17:35:14.107Z,69.48
2022-09-23T17:37:42.554Z,69.10
2022-09-23T17:40:12.817Z,68.04
2022-09-23T17:42:42.466Z,67.21
2022-09-23T17:45:12.637Z,65.80
2022-09-23T17:47:41.787Z,64.96
2022-09-23T17:50:10.711Z,64.94
2022-09-23T17:52:38.939Z,65.07
2022-09-23T17:55:08.965Z,65.69
2022-09-23T17:57:39.753Z,66.31
2022-09-23T18:00:10.262Z,67.25
2022-09-23T18:02:40.759Z,68.41
2022-09-23T18:05:09.692Z,67.32
2022-09-23T18:07:37.928Z,67.88
2022-09-23T18:10:07.134Z,69.89
2022-09-23T18:12:35.348Z,69.43
2022-09-23T18:15:06.552Z,70.30
2022-09-23T18:17:34.697Z,69.84
2022-09-23T18:20:08.186Z,69.56
2022-09-23T18:22:36.416Z,70.98
2022-09-23T18:25:22.755Z,70.74
2022-09-23T18:27:52.962Z,70.45
2022-09-23T18:30:24.102Z,70.67
2022-09-23T18:32:52.632Z,70.33
2022-09-23T18:35:22.761Z,70.91
2022-09-23T18:37:50.877Z,70.41
2022-09-23T18:40:19.941Z,70.77
2022-09-23T18:42:50.422Z,71.06
2022-09-23T18:45:18.695Z,73.02
2022-09-23T18:48:05.341Z,74.57
2022-09-23T18:50:43.400Z,76.63
2022-09-23T18:53:11.990Z,75.84
2022-09-23T18:55:40.834Z,75.40
2022-09-23T18:58:13.380Z,74.71
2022-09-23T19:00:42.176Z,75.12
2022-09-23T19:03:11.997Z,74.02
2022-09-23T19:05:40.158Z,73.76
2022-09-23T19:08:08.987Z,73.88
2022-09-23T19:10:37.250Z,73.82
2022-09-23T19:13:05.395Z,73.84
2022-09-23T19:15:34.385Z,74.12
2022-09-23T19:18:02.528Z,75.82
2022-09-23T19:20:32.345Z,76.58
2022-09-23T19:23:00.470Z,75.70
2022-09-23T19:25:28.728Z,75.71
2022-09-23T19:27:57.284Z,76.55
2022-09-23T19:30:26.238Z,76.22
2022-09-23T19:32:54.329Z,76.30
2022-09-23T19:35:22.690Z,76.28
2022-09-23T19:37:54.243Z,75.40
2022-09-23T19:40:22.569Z,76.86
2022-09-23T19:42:53.419Z,77.19
2022-09-23T19:45:21.974Z,76.63
2022-09-23T19:47:55.978Z,76.25
2022-09-23T19:50:24.383Z,76.08
2022-09-23T19:52:53.884Z,76.40
2022-09-23T19:55:21.999Z,75.76
2022-09-23T19:57:50.168Z,75.63
2022-09-23T20:00:18.975Z,75.84
2022-09-23T20:02:47.365Z,76.46
2022-09-23T20:05:19.713Z,77.18
2022-09-23T20:07:48.873Z,77.38
2022-09-23T20:10:18.670Z,76.94
2022-09-23T20:12:47.010Z,76.29
2022-09-23T20:15:18.471Z,77.30
2022-09-23T20:17:46.910Z,78.36
2022-09-23T20:20:15.936Z,77.47
2022-09-23T20:22:46.896Z,77.79
2022-09-23T20:25:15.110Z,78.08
2022-09-23T20:27:48.239Z,78.43
2022-09-23T20:30:16.907Z,78.34
2022-09-23T20:32:46.157Z,77.75
2022-09-23T20:35:16.464Z,77.93
2022-09-23T20:37:47.106Z,78.06
2022-09-23T20:40:15.616Z,77.63
2022-09-23T20:42:45.569Z,78.36
2022-09-23T20:45:13.934Z,77.93
2022-09-23T20:47:42.303Z,77.50
2022-09-23T20:50:12.251Z,78.24
2022-09-23T20:52:42.446Z,76.80
2022-09-23T20:55:10.930Z,76.69
2022-09-23T20:57:39.306Z,77.10
2022-09-23T21:00:09.874Z,77.47
2022-09-23T21:02:38.026Z,81.11
2022-09-23T21:05:10.577Z,81.00
2022-09-23T21:07:38.738Z,80.11
2022-09-23T21:10:08.868Z,79.35
2022-09-23T21:12:37.253Z,79.51
2022-09-23T21:15:06.334Z,79.69
2022-09-23T21:17:35.879Z,80.69
2022-09-23T21:20:05.609Z,82.19
2022-09-23T21:22:33.929Z,81.58
2022-09-23T21:27:53.962Z,81.56
2022-09-23T21:30:23.041Z,81.92
2022-09-23T21:32:52.469Z,80.96
2022-09-23T21:35:23.647Z,80.55
2022-09-23T21:37:57.598Z,80.56
2022-09-23T21:40:43.418Z,80.70
2022-09-23T21:43:12.246Z,80.37
2022-09-23T21:45:40.350Z,80.62
2022-09-23T21:48:10.025Z,81.70
2022-09-23T21:50:40.941Z,81.12
2022-09-23T21:53:09.197Z,80.47
2022-09-23T21:55:37.596Z,79.59
2022-09-23T21:58:05.796Z,78.67
2022-09-23T22:00:33.994Z,80.56
2022-09-23T22:03:02.243Z,80.77
2022-09-23T22:05:32.246Z,81.44
2022-09-23T22:08:00.419Z,81.13
2022-09-23T22:10:28.852Z,81.91
2022-09-23T22:12:58.397Z,81.37
2022-09-23T22:15:27.671Z,81.25
2022-09-23T22:17:55.826Z,81.19
2022-09-23T22:20:25.059Z,80.98
2022-09-23T22:22:54.543Z,80.97
2022-09-23T22:25:22.620Z,80.56
2022-09-23T22:28:09.405Z,80.50
2022-09-23T22:31:01.326Z,79.86
2022-09-23T22:33:31.667Z,80.36
2022-09-23T22:36:02.874Z,81.51
2022-09-23T22:38:33.007Z,80.31
2022-09-23T22:41:03.510Z,81.38
2022-09-23T22:43:34.020Z,80.63
2022-09-23T22:46:03.067Z,80.76
2022-09-23T22:48:32.252Z,81.19
2022-09-23T22:51:10.415Z,81.77
2022-09-23T22:53:39.809Z,81.10
2022-09-23T22:56:09.981Z,81.70
2022-09-23T22:58:38.172Z,82.28
2022-09-23T23:01:06.401Z,81.16
2022-09-23T23:03:36.374Z,82.27
2022-09-23T23:06:05.437Z,82.65
2022-09-23T23:08:33.645Z,83.04
2022-09-23T23:11:07.312Z,82.72
2022-09-23T23:13:42.040Z,82.72
2022-09-23T23:16:13.204Z,82.64
2022-09-23T23:18:43.406Z,82.30
2022-09-23T23:21:14.092Z,82.13
2022-09-23T23:23:44.969Z,82.42
2022-09-23T23:26:16.394Z,81.69
2022-09-23T23:28:45.687Z,81.99
2022-09-23T23:31:16.245Z,82.61
2022-09-23T23:33:46.883Z,82.68
2022-09-23T23:36:17.738Z,82.09
2022-09-23T23:38:47.316Z,82.19
2022-09-23T23:41:19.670Z,81.40
2022-09-23T23:43:49.133Z,82.01
2022-09-23T23:46:18.316Z,81.68
2022-09-23T23:48:48.536Z,81.83
2022-09-23T23:51:16.901Z,82.32
2022-09-23T23:53:45.208Z,82.61
2022-09-23T23:56:16.529Z,82.77
2022-09-23T23:58:53.992Z,82.05
